Impacts TAF Board
For situational awareness. Not to be used for flight planning purposes.
IDs:

KJFK - New York/Kennedy Int, NY, US

Issued at 1126 UTC 10 Aug 2022
Updated at 1416 UTC 10 Aug 2022
Potential Impact None Slight Moderate High
Time1351Z 10/15Z 10/16Z 10/17Z 10/18Z 10/19Z 10/20Z 10/21Z 10/22Z 10/23Z 11/00Z 11/01Z 11/02Z 11/03Z>>
Type OBS PRVL PRVL PRVL PRVL PRVL PRVL PRVL PRVL PRVL PRVL PRVL PRVL
  [PRB30]  
PRVL
  [PRB30]  
VIS 10 >6 >6 >6 >6 >6 >6 >6 >6 >6 >6 >6 >6
  [>6]  
>6
  [>6]  
CIG 55 -- 40 40 60 60 60 60 60 60 60 60 60
  [60]  
60
  [60]  
Cover BKN SCT BKN BKN BKN BKN BKN BKN BKN BKN OVC OVC OVC
  [OVC]  
OVC
  [OVC]  
FltCat VFR VFR VFR VFR VFR VFR VFR VFR VFR VFR VFR VFR VFR
  [VFR]  
VFR
  [VFR]  
WX -- -- -- -- -- -- -- -- -- -- -- -- --
  [-SHRA]  
--
  [-SHRA]  
WDir 20 10 VRB VRB 160 160 160 160 160 160 140 140 140
[140]
140
[140]
WSpd 9 8 3 3 10 10 10 10 10 10 6 6 6
  [6]  
6
  [6]  
WGst -- -- -- -- -- -- -- -- -- -- -- -- --
  [--]  
--
  [--]  
WSHgt -- -- -- -- -- -- -- -- -- -- -- -- --
[--]
--
[--]
WSDir -- -- -- -- -- -- -- -- -- -- -- -- --
[--]
--
[--]
WSSpd -- -- -- -- -- -- -- -- -- -- -- -- --
[--]
--
[--]
Raw TAF
KJFK 101126Z 1012/1118 01008KT P6SM SCT040 SCT120
  FM101600 VRB03KT P6SM BKN040
  FM101800 16010KT P6SM BKN060
  FM110000 14006KT P6SM OVC060
  PROB30 1102/1107 -SHRA
  FM110800 02004KT P6SM OVC040
  PROB30 1108/1113 -SHRA
  FM111700 16007KT P6SM SCT030 OVC050


Raw METAR
KJFK 101351Z 02009KT 10SM SCT043 BKN055 28/17 A3006 RMK AO2 SLP179 T02830172
KJFK 101251Z 36008KT 10SM BKN043 27/18 A3007 RMK AO2 SLP182 T02720178
KJFK 101151Z 01008KT 10SM BKN037 BKN220 26/17 A3006 RMK AO2 SLP177 T02560172 10283 20244 51016

METAR Board
Radar Display
Forecast Discussion
For situational awareness. Not to be used for flight planning purposes.